Weather at Zagora Airport

Public forecast

Using degrees Celsius for public forecast. Weather courtesy of forecast.io.

Closest aviation weather report (METAR) to Zagora Airport

Closest report is Ouarzazate Airport, 65.4 nm (121.2 km) NW. Retrieved 2021/01/19 11:00 UTC (31 minutes ago):

GMMZ 191100Z VRB02KT CAVOK 10/M06 Q1029 NOSIG

Closest aviation forecast (TAF) to Zagora Airport

Closest forecast is Ouarzazate Airport, 65.4 nm (121.2 km) NW. Retrieved 2021/01/19 06:16 UTC (5 hours ago):

TAF GMMZ 190500Z 1906/2012 VRB02KT CAVOK